createdAt,value
2023-02-09T00:01:25.652Z,100769.53
2023-02-09T00:03:53.948Z,100774.09
2023-02-09T00:06:22.917Z,100767.44
2023-02-09T00:08:51.045Z,100761.69
2023-02-09T00:11:22.073Z,100765.63
2023-02-09T00:13:48.735Z,100765.47
2023-02-09T00:16:16.809Z,100766.56
2023-02-09T00:18:44.680Z,100758.88
2023-02-09T00:21:12.997Z,100761.63
2023-02-09T00:23:42.018Z,100768.78
2023-02-09T00:26:11.755Z,100761.91
2023-02-09T00:28:40.705Z,100752.41
2023-02-09T00:31:09.147Z,100759.75
2023-02-09T00:33:37.407Z,100761.56
2023-02-09T00:36:06.948Z,100762.63
2023-02-09T00:38:35.368Z,100749.94
2023-02-09T00:41:03.593Z,100755.25
2023-02-09T00:43:31.228Z,100758.50
2023-02-09T00:46:00.600Z,100756.16
2023-02-09T00:48:28.450Z,100755.31
2023-02-09T00:50:56.178Z,100762.06
2023-02-09T00:53:24.743Z,100759.75
2023-02-09T00:55:52.795Z,100740.44
2023-02-09T00:58:20.895Z,100738.47
2023-02-09T01:00:49.762Z,100736.81
2023-02-09T01:03:18.901Z,100740.50
2023-02-09T01:05:46.611Z,100735.34
2023-02-09T01:08:14.219Z,100747.25
2023-02-09T01:10:42.301Z,100744.66
2023-02-09T01:13:09.906Z,100741.09
2023-02-09T01:15:40.403Z,100738.91
2023-02-09T01:18:08.264Z,100743.91
2023-02-09T01:20:37.347Z,100730.63
2023-02-09T01:23:05.067Z,100704.22
2023-02-09T01:25:32.646Z,100731.44
2023-02-09T01:28:00.367Z,100728.75
2023-02-09T01:30:28.494Z,100720.91
2023-02-09T01:32:56.324Z,100721.66
2023-02-09T01:35:23.868Z,100714.81
2023-02-09T01:37:52.808Z,100701.69
2023-02-09T01:40:20.462Z,100686.66
2023-02-09T01:42:48.054Z,100679.91
2023-02-09T01:45:24.164Z,100682.16
2023-02-09T01:47:56.394Z,100680.63
2023-02-09T01:50:26.175Z,100676.00
2023-02-09T01:52:55.593Z,100661.09
2023-02-09T01:55:25.821Z,100674.25
2023-02-09T01:57:56.866Z,100679.34
2023-02-09T02:00:25.459Z,100682.16
2023-02-09T02:02:55.703Z,100687.97
2023-02-09T02:05:23.930Z,100688.53
2023-02-09T02:07:57.850Z,100678.06
2023-02-09T02:10:25.806Z,100677.34
2023-02-09T02:12:54.392Z,100673.88
2023-02-09T02:15:23.488Z,100672.44
2023-02-09T02:18:08.606Z,100681.00
2023-02-09T02:21:02.734Z,100674.84
2023-02-09T02:23:37.773Z,100680.41
2023-02-09T02:26:28.628Z,100681.13
2023-02-09T02:29:17.608Z,100672.28
2023-02-09T02:32:00.236Z,100672.50
2023-02-09T02:34:34.584Z,100674.03
2023-02-09T02:37:09.070Z,100679.19
2023-02-09T02:39:40.786Z,100667.13
2023-02-09T02:42:29.912Z,100674.97
2023-02-09T02:45:02.462Z,100671.28
2023-02-09T02:47:32.562Z,100671.41
2023-02-09T02:50:02.643Z,100657.09
2023-02-09T02:52:30.561Z,100661.72
2023-02-09T02:55:02.640Z,100665.13
2023-02-09T02:57:32.816Z,100661.56
2023-02-09T03:00:03.179Z,100653.91
2023-02-09T03:02:35.214Z,100660.09
2023-02-09T03:05:04.373Z,100645.22
2023-02-09T03:07:32.837Z,100647.06
2023-02-09T03:10:02.930Z,100656.38
2023-02-09T03:12:37.134Z,100659.25
2023-02-09T03:15:15.652Z,100651.03
2023-02-09T03:17:48.653Z,100654.16
2023-02-09T03:20:24.910Z,100647.81
2023-02-09T03:22:58.010Z,100667.97
2023-02-09T03:25:28.804Z,100649.06
2023-02-09T03:28:01.133Z,100638.06
2023-02-09T03:30:28.824Z,100666.25
2023-02-09T03:32:57.898Z,100657.66
2023-02-09T03:35:28.325Z,100660.13
2023-02-09T03:37:55.936Z,100656.91
2023-02-09T03:40:23.708Z,100654.19
2023-02-09T03:42:51.379Z,100662.16
2023-02-09T03:45:19.120Z,100655.50
2023-02-09T03:47:46.750Z,100661.22
2023-02-09T03:50:16.132Z,100666.56
2023-02-09T03:52:43.732Z,100664.75
2023-02-09T03:55:11.480Z,100666.63
2023-02-09T03:57:39.106Z,100672.63
2023-02-09T04:00:07.944Z,100669.78
2023-02-09T04:02:35.565Z,100662.97
2023-02-09T04:05:05.630Z,100666.19
2023-02-09T04:07:35.041Z,100663.81
2023-02-09T04:10:02.816Z,100660.47
2023-02-09T04:12:30.441Z,100665.72
2023-02-09T04:14:58.282Z,100662.56
2023-02-09T04:17:25.843Z,100661.00
2023-02-09T04:19:53.485Z,100653.31
2023-02-09T04:22:21.278Z,100663.81
2023-02-09T04:24:50.257Z,100662.50
2023-02-09T04:27:17.849Z,100660.56
2023-02-09T04:29:45.523Z,100655.13
2023-02-09T04:32:13.105Z,100650.72
2023-02-09T04:34:40.746Z,100659.38
2023-02-09T04:37:08.307Z,100662.03
2023-02-09T04:39:35.925Z,100658.75
2023-02-09T04:42:04.975Z,100666.69
2023-02-09T04:44:32.652Z,100659.44
2023-02-09T04:47:00.211Z,100663.66
2023-02-09T04:49:27.854Z,100665.00
2023-02-09T04:51:55.629Z,100657.16
2023-02-09T04:54:23.230Z,100665.63
2023-02-09T04:57:11.054Z,100657.78
2023-02-09T04:59:41.453Z,100660.16
2023-02-09T05:02:08.991Z,100654.03
2023-02-09T05:04:36.558Z,100655.34
2023-02-09T05:07:04.317Z,100657.53
2023-02-09T05:09:32.110Z,100665.19
2023-02-09T05:11:59.660Z,100671.28
2023-02-09T05:14:27.532Z,100662.88
2023-02-09T05:16:56.633Z,100670.41
2023-02-09T05:19:24.345Z,100679.94
2023-02-09T05:21:51.978Z,100677.03
2023-02-09T05:24:19.545Z,100667.63
2023-02-09T05:26:47.225Z,100682.81
2023-02-09T05:29:14.773Z,100684.69
2023-02-09T05:31:42.566Z,100679.13
2023-02-09T05:34:11.511Z,100682.69
2023-02-09T05:36:39.140Z,100678.50
2023-02-09T05:39:06.788Z,100687.84
2023-02-09T05:41:57.077Z,100682.56
2023-02-09T05:44:24.888Z,100675.41
2023-02-09T05:46:52.574Z,100677.97
2023-02-09T05:49:21.549Z,100678.03
2023-02-09T05:51:49.115Z,100674.53
2023-02-09T05:54:16.708Z,100672.97
2023-02-09T05:56:44.724Z,100667.63
2023-02-09T05:59:12.482Z,100670.66
2023-02-09T06:01:40.525Z,100653.69
2023-02-09T06:04:09.084Z,100655.34
2023-02-09T06:06:38.549Z,100658.97
2023-02-09T06:09:06.396Z,100662.22
2023-02-09T06:11:34.122Z,100668.94
2023-02-09T06:14:02.118Z,100670.69
2023-02-09T06:16:29.918Z,100669.75
2023-02-09T06:18:57.518Z,100668.88
2023-02-09T06:21:25.081Z,100670.31
2023-02-09T06:23:54.184Z,100679.72
2023-02-09T06:28:51.198Z,100692.63
2023-02-09T06:33:48.207Z,100693.72
2023-02-09T06:36:15.894Z,100652.28
2023-02-09T06:38:43.538Z,100703.25
2023-02-09T06:41:12.751Z,100699.31
2023-02-09T06:43:40.423Z,100662.41
2023-02-09T06:46:08.608Z,100702.38
2023-02-09T06:48:36.393Z,100682.84
2023-02-09T06:51:08.489Z,100700.59
2023-02-09T06:53:36.605Z,100705.63
2023-02-09T06:56:04.643Z,100714.03
2023-02-09T06:58:34.225Z,100714.53
2023-02-09T07:01:05.176Z,100713.53
2023-02-09T07:03:32.801Z,100714.97
2023-02-09T07:06:04.543Z,100722.75
2023-02-09T07:08:32.308Z,100721.03
2023-02-09T07:11:02.711Z,100723.88
2023-02-09T07:13:31.906Z,100722.06
2023-02-09T07:16:02.189Z,100725.31
2023-02-09T07:18:30.531Z,100723.56
2023-02-09T07:20:59.517Z,100717.59
2023-02-09T07:23:27.481Z,100714.47
2023-02-09T07:25:55.574Z,100708.53
2023-02-09T07:28:23.426Z,100720.13
2023-02-09T07:30:52.917Z,100723.41
2023-02-09T07:33:22.944Z,100718.84
2023-02-09T07:35:50.631Z,100722.72
2023-02-09T07:38:18.621Z,100719.09
2023-02-09T07:40:46.704Z,100715.84
2023-02-09T07:43:15.518Z,100728.94
2023-02-09T07:45:44.146Z,100723.88
2023-02-09T07:48:12.816Z,100726.13
2023-02-09T07:50:42.011Z,100723.91
2023-02-09T07:53:09.746Z,100722.44
2023-02-09T07:55:37.338Z,100729.97
2023-02-09T07:58:04.973Z,100725.22
2023-02-09T08:00:32.557Z,100724.81
2023-02-09T08:03:01.037Z,100724.81
2023-02-09T08:05:32.065Z,100727.56
2023-02-09T08:08:01.596Z,100728.31
2023-02-09T08:10:29.486Z,100724.69
2023-02-09T08:13:00.882Z,100733.63
2023-02-09T08:15:36.064Z,100729.41
2023-02-09T08:18:07.075Z,100725.63
2023-02-09T08:20:35.432Z,100732.97
2023-02-09T08:23:08.375Z,100741.00
2023-02-09T08:25:37.124Z,100734.97
2023-02-09T08:28:05.989Z,100742.84
2023-02-09T08:30:35.148Z,100741.53
2023-02-09T08:33:03.634Z,100742.44
2023-02-09T08:35:31.446Z,100736.44
2023-02-09T08:38:03.077Z,100729.06
2023-02-09T08:40:32.798Z,100739.91
2023-02-09T08:43:00.380Z,100751.00
2023-02-09T08:45:28.680Z,100736.69
2023-02-09T08:47:56.962Z,100746.13
2023-02-09T08:50:24.619Z,100740.94
2023-02-09T08:52:52.423Z,100743.06
2023-02-09T08:55:20.199Z,100739.09
2023-02-09T08:57:49.198Z,100736.44
2023-02-09T09:00:17.720Z,100734.97
2023-02-09T09:02:45.366Z,100731.66
2023-02-09T09:05:13.103Z,100727.75
2023-02-09T09:07:40.791Z,100722.91
2023-02-09T09:10:09.858Z,100722.97
2023-02-09T09:12:38.051Z,100716.16
2023-02-09T09:15:07.958Z,100721.56
2023-02-09T09:17:35.549Z,100725.16
2023-02-09T09:20:03.284Z,100723.03
2023-02-09T09:22:30.878Z,100715.19
2023-02-09T09:24:58.499Z,100720.88
2023-02-09T09:27:27.045Z,100733.56
2023-02-09T09:29:55.048Z,100734.28
2023-02-09T09:32:24.915Z,100728.53
2023-02-09T09:34:53.519Z,100732.31
2023-02-09T09:37:21.151Z,100747.69
2023-02-09T09:39:49.058Z,100729.09
2023-02-09T09:42:24.625Z,100736.09
2023-02-09T09:44:52.805Z,100738.47
2023-02-09T09:47:26.676Z,100742.63
2023-02-09T09:49:54.391Z,100730.69
2023-02-09T09:52:30.636Z,100724.13
2023-02-09T09:54:59.044Z,100724.31
2023-02-09T09:57:29.090Z,100719.75
2023-02-09T09:59:57.253Z,100729.25
2023-02-09T10:02:30.471Z,100722.63
2023-02-09T10:05:03.683Z,100740.34
2023-02-09T10:07:33.017Z,100744.53
2023-02-09T10:10:03.928Z,100739.38
2023-02-09T10:12:37.373Z,100735.88
2023-02-09T10:15:25.120Z,100754.28
2023-02-09T10:17:54.524Z,100760.53
2023-02-09T10:20:41.078Z,100759.78
2023-02-09T10:23:18.398Z,100755.19
2023-02-09T10:26:03.455Z,100770.50
2023-02-09T10:28:32.762Z,100762.22
2023-02-09T10:31:03.129Z,100762.38
2023-02-09T10:33:41.984Z,100758.25
2023-02-09T10:36:23.665Z,100757.34
2023-02-09T10:38:51.676Z,100748.94
2023-02-09T10:41:19.698Z,100753.50
2023-02-09T10:43:52.423Z,100750.34
2023-02-09T10:46:21.413Z,100744.56
2023-02-09T10:48:50.393Z,100750.94
2023-02-09T10:51:28.918Z,100743.44
2023-02-09T10:54:02.652Z,100755.31
2023-02-09T10:56:35.865Z,100747.94
2023-02-09T10:59:05.078Z,100739.81
2023-02-09T11:01:34.344Z,100730.72
2023-02-09T11:04:05.127Z,100742.25
2023-02-09T11:06:36.813Z,100729.38
2023-02-09T11:09:07.098Z,100740.06
2023-02-09T11:11:36.995Z,100740.09
2023-02-09T11:14:07.278Z,100740.63
2023-02-09T11:16:51.920Z,100731.63
2023-02-09T11:19:31.327Z,100724.66
2023-02-09T11:22:07.987Z,100737.59
2023-02-09T11:24:49.724Z,100735.09
2023-02-09T11:27:28.924Z,100733.59
2023-02-09T11:30:05.941Z,100725.25
2023-02-09T11:32:36.853Z,100709.03
2023-02-09T11:35:10.868Z,100704.88
2023-02-09T11:37:46.621Z,100701.16
2023-02-09T11:40:23.446Z,100706.25
2023-02-09T11:42:57.007Z,100696.16
2023-02-09T11:45:30.597Z,100703.00
2023-02-09T11:48:03.941Z,100709.56
2023-02-09T11:50:36.870Z,100710.03
2023-02-09T11:53:07.463Z,100709.84
2023-02-09T11:55:40.297Z,100706.88
2023-02-09T11:58:15.925Z,100710.50
2023-02-09T12:00:55.980Z,100716.50
2023-02-09T12:03:25.426Z,100705.41
2023-02-09T12:05:55.040Z,100703.91
2023-02-09T12:08:35.872Z,100709.66
2023-02-09T12:11:21.515Z,100707.88
2023-02-09T12:14:02.968Z,100714.06
2023-02-09T12:16:34.082Z,100691.53
2023-02-09T12:19:02.871Z,100685.78
2023-02-09T12:21:33.916Z,100678.25
2023-02-09T12:24:02.430Z,100688.63
2023-02-09T12:26:40.681Z,100686.94
2023-02-09T12:29:26.920Z,100684.53
2023-02-09T12:32:38.389Z,100697.31
2023-02-09T12:35:26.887Z,100693.94
2023-02-09T12:38:16.843Z,100696.59
2023-02-09T12:40:45.042Z,100691.31
2023-02-09T12:43:30.999Z,100694.00
2023-02-09T12:46:13.973Z,100689.91
2023-02-09T12:49:04.230Z,100689.19
2023-02-09T12:51:45.587Z,100689.69
2023-02-09T12:54:32.376Z,100688.81
2023-02-09T12:57:29.697Z,100687.84
2023-02-09T13:00:32.395Z,100674.31
2023-02-09T13:03:11.690Z,100670.81
2023-02-09T13:05:44.569Z,100669.25
2023-02-09T13:08:17.359Z,100672.75
2023-02-09T13:10:52.216Z,100674.28
2023-02-09T13:13:22.582Z,100683.81
2023-02-09T13:15:56.094Z,100677.75
2023-02-09T13:18:29.505Z,100682.22
2023-02-09T13:21:05.632Z,100684.09
2023-02-09T13:23:38.391Z,100681.34
2023-02-09T13:26:19.515Z,100677.22
2023-02-09T13:28:47.850Z,100673.91
2023-02-09T13:31:26.210Z,100675.44
2023-02-09T13:33:57.366Z,100671.84
2023-02-09T13:36:32.481Z,100664.97
2023-02-09T13:39:00.185Z,100654.66
2023-02-09T13:41:36.152Z,100656.38
2023-02-09T13:44:04.032Z,100664.94
2023-02-09T13:46:35.176Z,100666.84
2023-02-09T13:49:13.215Z,100671.25
2023-02-09T13:51:42.739Z,100676.47
2023-02-09T13:54:19.632Z,100672.13
2023-02-09T13:56:48.719Z,100660.69
2023-02-09T13:59:17.687Z,100673.84
2023-02-09T14:01:47.143Z,100679.13
2023-02-09T14:04:19.066Z,100674.78
2023-02-09T14:06:49.597Z,100656.44
2023-02-09T14:09:20.440Z,100668.59
2023-02-09T14:11:52.293Z,100659.81
2023-02-09T14:14:23.883Z,100666.84
2023-02-09T14:17:24.301Z,100652.00
2023-02-09T14:19:53.458Z,100639.78
2023-02-09T14:22:29.492Z,100647.56
2023-02-09T14:24:57.232Z,100655.50
2023-02-09T14:27:27.789Z,100664.22
2023-02-09T14:29:55.844Z,100655.41
2023-02-09T14:32:32.355Z,100659.78
2023-02-09T14:35:09.885Z,100647.63
2023-02-09T14:37:38.068Z,100663.31
2023-02-09T14:40:21.924Z,100664.94
2023-02-09T14:43:05.412Z,100653.66
2023-02-09T14:45:38.884Z,100646.53
2023-02-09T14:48:18.267Z,100666.69
2023-02-09T14:50:45.880Z,100670.88
2023-02-09T14:53:15.774Z,100664.03
2023-02-09T14:55:44.552Z,100670.06
2023-02-09T14:58:19.473Z,100655.16
2023-02-09T15:00:47.266Z,100657.84
2023-02-09T15:03:14.816Z,100662.13
2023-02-09T15:05:42.543Z,100664.75
2023-02-09T15:08:12.621Z,100648.09
2023-02-09T15:10:44.190Z,100650.81
2023-02-09T15:13:14.303Z,100661.06
2023-02-09T15:15:42.108Z,100660.34
2023-02-09T15:18:18.973Z,100659.38
2023-02-09T15:20:46.968Z,100657.63
2023-02-09T15:23:14.741Z,100666.34
2023-02-09T15:25:43.049Z,100668.06
2023-02-09T15:28:19.206Z,100670.41
2023-02-09T15:30:47.277Z,100661.69
2023-02-09T15:33:15.080Z,100645.88
2023-02-09T15:35:42.785Z,100673.03
2023-02-09T15:38:11.226Z,100654.75
2023-02-09T15:41:00.424Z,100651.09
2023-02-09T15:43:47.215Z,100684.13
2023-02-09T15:46:32.667Z,100684.06
2023-02-09T15:49:00.749Z,100689.31
2023-02-09T15:51:33.928Z,100682.28
2023-02-09T15:54:03.921Z,100689.03
2023-02-09T15:56:31.684Z,100693.22
2023-02-09T15:59:03.864Z,100698.25
2023-02-09T16:01:33.850Z,100696.63
2023-02-09T16:04:13.503Z,100659.16
2023-02-09T16:06:43.606Z,100665.06
2023-02-09T16:09:12.060Z,100684.94
2023-02-09T16:11:42.026Z,100685.81
2023-02-09T16:14:16.205Z,100679.56
2023-02-09T16:16:45.870Z,100674.97
2023-02-09T16:19:13.695Z,100670.66
2023-02-09T16:21:43.867Z,100673.97
2023-02-09T16:24:17.903Z,100686.19
2023-02-09T16:26:45.656Z,100700.78
2023-02-09T16:29:15.278Z,100705.78
2023-02-09T16:31:43.099Z,100701.22
2023-02-09T16:34:15.392Z,100708.91
2023-02-09T16:36:43.910Z,100705.34
2023-02-09T16:39:17.113Z,100719.88
2023-02-09T16:41:48.126Z,100718.09
2023-02-09T16:44:20.302Z,100712.78
2023-02-09T16:46:49.763Z,100720.38
2023-02-09T16:49:29.326Z,100725.44
2023-02-09T16:51:58.033Z,100727.31
2023-02-09T16:54:25.704Z,100734.03
2023-02-09T16:56:54.461Z,100729.47
2023-02-09T16:59:23.736Z,100733.00
2023-02-09T17:01:51.757Z,100735.69
2023-02-09T17:04:19.465Z,100738.38
2023-02-09T17:06:49.022Z,100742.47
2023-02-09T17:09:17.295Z,100751.19
2023-02-09T17:11:45.030Z,100720.38
2023-02-09T17:14:12.785Z,100719.22
2023-02-09T17:16:44.971Z,100741.03
2023-02-09T17:19:18.993Z,100738.53
2023-02-09T17:21:46.977Z,100755.63
2023-02-09T17:24:16.986Z,100763.41
2023-02-09T17:26:45.447Z,100770.28
2023-02-09T17:29:13.313Z,100772.72
2023-02-09T17:31:52.930Z,100763.00
2023-02-09T17:34:26.859Z,100750.00
2023-02-09T17:36:54.437Z,100758.69
2023-02-09T17:39:22.011Z,100759.53
2023-02-09T17:41:49.972Z,100766.53
2023-02-09T17:44:35.335Z,100774.31
2023-02-09T17:47:10.152Z,100775.72
2023-02-09T17:49:37.678Z,100762.00
2023-02-09T17:52:05.563Z,100771.69
2023-02-09T17:54:33.857Z,100749.63
2023-02-09T17:57:01.385Z,100776.63
2023-02-09T17:59:28.980Z,100781.84
2023-02-09T18:01:58.771Z,100774.13
2023-02-09T18:04:28.640Z,100748.94
2023-02-09T18:06:57.859Z,100782.72
2023-02-09T18:09:25.625Z,100787.63
2023-02-09T18:11:59.610Z,100757.75
2023-02-09T18:14:28.060Z,100784.97
2023-02-09T18:16:56.005Z,100794.41
2023-02-09T18:19:24.664Z,100791.72
2023-02-09T18:21:55.515Z,100791.63
2023-02-09T18:24:25.204Z,100769.50
2023-02-09T18:26:52.851Z,100796.88
2023-02-09T18:29:22.736Z,100799.41
2023-02-09T18:31:50.466Z,100763.38
2023-02-09T18:34:18.148Z,100797.56
2023-02-09T18:36:46.017Z,100801.22
2023-02-09T18:39:16.838Z,100782.72
2023-02-09T18:41:46.309Z,100772.94
2023-02-09T18:44:13.927Z,100803.56
2023-02-09T18:46:43.056Z,100787.88
2023-02-09T18:49:12.482Z,100779.88
2023-02-09T18:51:40.102Z,100808.16
2023-02-09T18:54:07.685Z,100807.09
2023-02-09T18:56:36.792Z,100821.84
2023-02-09T18:59:04.587Z,100846.13
2023-02-09T19:01:32.430Z,100842.47
2023-02-09T19:04:00.202Z,100844.22
2023-02-09T19:06:27.863Z,100839.13
2023-02-09T19:08:55.627Z,100805.19
2023-02-09T19:11:24.750Z,100822.19
2023-02-09T19:14:11.169Z,100828.13
2023-02-09T19:16:40.934Z,100837.91
2023-02-09T19:19:09.803Z,100832.69
2023-02-09T19:21:37.472Z,100848.56
2023-02-09T19:24:05.482Z,100848.38
2023-02-09T19:26:33.249Z,100816.56
2023-02-09T19:29:02.274Z,100849.75
2023-02-09T19:31:29.992Z,100843.75
2023-02-09T19:33:58.402Z,100854.13
2023-02-09T19:36:27.847Z,100849.69
2023-02-09T19:38:55.954Z,100846.09
2023-02-09T19:41:25.484Z,100850.28
2023-02-09T19:43:55.813Z,100852.94
2023-02-09T19:46:25.059Z,100851.31
2023-02-09T19:48:53.650Z,100829.22
2023-02-09T19:51:21.331Z,100853.84
2023-02-09T19:53:48.944Z,100861.69
2023-02-09T19:56:17.285Z,100832.53
2023-02-09T19:58:44.894Z,100876.34
2023-02-09T20:01:12.881Z,100859.47
2023-02-09T20:03:41.881Z,100863.75
2023-02-09T20:06:11.183Z,100872.69
2023-02-09T20:08:39.357Z,100875.84
2023-02-09T20:11:07.909Z,100872.47
2023-02-09T20:13:36.199Z,100879.44
2023-02-09T20:16:08.411Z,100870.63
2023-02-09T20:18:36.033Z,100882.00
2023-02-09T20:21:07.537Z,100889.97
2023-02-09T20:23:35.116Z,100855.09
2023-02-09T20:26:02.766Z,100893.66
2023-02-09T20:28:30.440Z,100893.53
2023-02-09T20:30:58.003Z,100888.22
2023-02-09T20:33:26.486Z,100891.47
2023-02-09T20:35:54.105Z,100881.75
2023-02-09T20:38:23.028Z,100888.63
2023-02-09T20:40:50.585Z,100900.88
2023-02-09T20:43:35.994Z,100900.72
2023-02-09T20:46:23.465Z,100880.16
2023-02-09T20:48:52.203Z,100905.53
2023-02-09T20:51:20.203Z,100875.59
2023-02-09T20:53:49.260Z,100880.31
2023-02-09T20:56:17.079Z,100912.63
2023-02-09T20:58:45.777Z,100889.75
2023-02-09T21:01:15.791Z,100906.53
2023-02-09T21:03:43.512Z,100909.88
2023-02-09T21:06:13.415Z,100905.69
2023-02-09T21:08:41.407Z,100896.66
2023-02-09T21:11:10.673Z,100904.78
2023-02-09T21:13:41.105Z,100906.25
2023-02-09T21:16:09.419Z,100904.38
2023-02-09T21:18:37.708Z,100914.63
2023-02-09T21:21:06.093Z,100875.09
2023-02-09T21:23:33.845Z,100905.06
2023-02-09T21:26:03.172Z,100912.09
2023-02-09T21:28:32.572Z,100915.59
2023-02-09T21:31:00.738Z,100917.13
2023-02-09T21:33:28.808Z,100917.81
2023-02-09T21:35:56.750Z,100915.94
2023-02-09T21:38:25.245Z,100922.84
2023-02-09T21:40:52.856Z,100916.69
2023-02-09T21:43:20.450Z,100904.44
2023-02-09T21:45:49.634Z,100915.03
2023-02-09T21:48:17.263Z,100911.50
2023-02-09T21:50:45.018Z,100865.94
2023-02-09T21:53:12.672Z,100902.03
2023-02-09T21:55:41.197Z,100890.03
2023-02-09T21:58:08.849Z,100903.50
2023-02-09T22:00:36.514Z,100908.63
2023-02-09T22:03:08.647Z,100900.03
2023-02-09T22:05:36.522Z,100900.63
2023-02-09T22:08:04.241Z,100865.47
2023-02-09T22:10:31.923Z,100904.00
2023-02-09T22:12:59.595Z,100897.94
2023-02-09T22:15:27.289Z,100885.81
2023-02-09T22:17:54.890Z,100915.34
2023-02-09T22:20:23.838Z,100918.13
2023-02-09T22:22:51.461Z,100921.50
2023-02-09T22:25:19.246Z,100918.03
2023-02-09T22:27:46.871Z,100902.59
2023-02-09T22:30:14.696Z,100914.63
2023-02-09T22:32:42.327Z,100912.97
2023-02-09T22:35:10.111Z,100910.66
2023-02-09T22:37:39.048Z,100916.53
2023-02-09T22:40:07.237Z,100906.31
2023-02-09T22:42:34.877Z,100881.63
2023-02-09T22:45:02.548Z,100924.69
2023-02-09T22:47:30.373Z,100918.00
2023-02-09T22:49:58.373Z,100919.63
2023-02-09T22:52:25.962Z,100905.56
2023-02-09T22:54:54.880Z,100920.03
2023-02-09T22:57:22.512Z,100913.59
2023-02-09T22:59:50.119Z,100915.06
2023-02-09T23:02:17.742Z,100904.78
2023-02-09T23:04:45.406Z,100914.94
2023-02-09T23:07:13.024Z,100911.50
2023-02-09T23:09:40.628Z,100907.25
2023-02-09T23:12:09.666Z,100917.13
2023-02-09T23:14:37.307Z,100910.09
2023-02-09T23:17:04.893Z,100909.06
2023-02-09T23:19:32.561Z,100912.72
2023-02-09T23:22:00.887Z,100910.00
2023-02-09T23:24:29.020Z,100906.59
2023-02-09T23:26:57.674Z,100907.75
2023-02-09T23:29:28.324Z,100918.16
2023-02-09T23:31:56.135Z,100916.34
2023-02-09T23:34:23.932Z,100918.41
2023-02-09T23:36:52.289Z,100922.00
2023-02-09T23:39:22.238Z,100921.13
2023-02-09T23:41:49.830Z,100924.34
2023-02-09T23:44:17.522Z,100923.44
2023-02-09T23:46:47.018Z,100931.13
2023-02-09T23:49:14.657Z,100936.06
2023-02-09T23:51:42.428Z,100933.78
2023-02-09T23:54:11.655Z,100943.88
2023-02-09T23:56:39.666Z,100944.59
2023-02-09T23:59:09.034Z,100947.28
